Time;durP1;ratioP1;P1;durP2;ratioP2;P2;SDS_P1;SDS_P2;PMS_P1;PMS_P2;Temp;Humidity;BMP_temperature;BMP_pressure;BME280_temperature;BME280_humidity;BME280_pressure;Samples;Min_cycle;Max_cycle;Signal;HPM_P1;HPM_P2
2021/08/21 00:00:50;;;;;;;2.55;2.33;;;20.40;61.30;;;;;;5039149;28;20591;-81
2021/08/21 00:03:23;;;;;;;2.78;2.47;;;20.40;61.20;;;;;;5006338;28;20174;-82
2021/08/21 00:05:49;;;;;;;3.03;2.72;;;20.40;61.40;;;;;;5022792;28;20598;-81
2021/08/21 00:08:19;;;;;;;2.88;2.60;;;20.40;61.20;;;;;;5038913;28;20158;-81
2021/08/21 00:10:49;;;;;;;3.45;3.15;;;20.40;61.20;;;;;;5005684;28;20624;-81
2021/08/21 00:13:19;;;;;;;3.30;2.97;;;20.40;61.30;;;;;;5091283;28;20189;-81
2021/08/21 00:15:46;;;;;;;3.30;2.80;;;20.40;61.40;;;;;;5087032;28;20704;-81
2021/08/21 00:18:12;;;;;;;2.97;2.67;;;20.40;61.40;;;;;;5036276;28;20517;-80
2021/08/21 00:20:38;;;;;;;3.17;2.80;;;20.40;61.40;;;;;;5019700;28;20167;-81
2021/08/21 00:23:04;;;;;;;2.70;2.50;;;20.30;61.40;;;;;;5036681;28;20143;-81
2021/08/21 00:25:34;;;;;;;2.85;2.65;;;20.40;61.30;;;;;;5035357;28;20156;-82
2021/08/21 00:28:00;;;;;;;3.10;2.70;;;20.40;61.40;;;;;;5086928;28;20182;-81
2021/08/21 00:30:30;;;;;;;2.92;2.67;;;20.40;61.40;;;;;;5035894;28;20212;-80
2021/08/21 00:32:56;;;;;;;2.92;2.63;;;20.40;61.40;;;;;;5086624;28;20206;-82
2021/08/21 00:35:22;;;;;;;2.78;2.58;;;20.40;61.40;;;;;;5034882;28;20677;-80
2021/08/21 00:37:50;;;;;;;3.17;2.75;;;20.40;61.40;;;;;;5035049;28;20166;-81
2021/08/21 00:40:21;;;;;;;3.10;2.80;;;20.40;61.60;;;;;;5019028;28;20164;-81
2021/08/21 00:42:53;;;;;;;2.60;2.40;;;20.30;61.50;;;;;;5087316;28;20661;-82
2021/08/21 00:45:20;;;;;;;2.90;2.60;;;20.30;61.40;;;;;;5088978;28;20194;-81
2021/08/21 00:47:46;;;;;;;3.42;2.70;;;20.30;61.50;;;;;;5021892;28;20250;-81
2021/08/21 00:50:16;;;;;;;3.15;2.60;;;20.40;61.60;;;;;;5039316;28;20155;-82
2021/08/21 00:52:46;;;;;;;3.38;3.08;;;20.40;61.50;;;;;;5073881;28;20197;-81
2021/08/21 00:55:12;;;;;;;3.08;2.80;;;20.40;61.50;;;;;;5091099;28;20214;-81
2021/08/21 00:57:38;;;;;;;2.85;2.63;;;20.40;61.50;;;;;;5038508;28;20147;-81
2021/08/21 01:00:08;;;;;;;2.97;2.67;;;20.30;61.30;;;;;;5039672;28;20219;-81
2021/08/21 01:02:39;;;;;;;3.25;2.95;;;20.40;61.50;;;;;;5090212;28;20179;-81
2021/08/21 01:05:06;;;;;;;3.47;2.70;;;20.40;61.60;;;;;;5090078;28;20189;-81
2021/08/21 01:07:34;;;;;;;3.13;2.80;;;20.40;61.60;;;;;;5040099;28;20162;-81
2021/08/21 01:10:02;;;;;;;3.13;2.83;;;20.30;61.50;;;;;;5039989;28;20283;-81
2021/08/21 01:12:29;;;;;;;3.20;2.90;;;20.30;61.50;;;;;;5038598;28;20159;-81
2021/08/21 01:14:55;;;;;;;2.90;2.55;;;20.40;61.60;;;;;;5012650;28;20291;-82
2021/08/21 01:17:21;;;;;;;3.13;2.83;;;20.30;61.50;;;;;;5018353;28;20191;-82
2021/08/21 01:19:49;;;;;;;3.25;2.95;;;20.40;61.60;;;;;;5017779;28;20630;-81
2021/08/21 01:22:18;;;;;;;3.00;2.70;;;20.40;61.60;;;;;;5019536;28;20212;-81
2021/08/21 01:24:50;;;;;;;3.15;2.85;;;20.40;61.50;;;;;;5017176;28;20155;-81
2021/08/21 01:27:18;;;;;;;3.10;2.80;;;20.40;61.60;;;;;;5001468;28;20266;-81
2021/08/21 01:29:45;;;;;;;3.00;2.70;;;20.40;62.40;;;;;;5017921;28;20152;-81
2021/08/21 01:32:11;;;;;;;3.00;2.70;;;20.40;61.70;;;;;;5019760;28;20162;-81
2021/08/21 01:34:37;;;;;;;3.38;2.85;;;20.30;61.60;;;;;;5017156;28;20171;-82
2021/08/21 01:37:03;;;;;;;2.95;2.65;;;20.30;61.40;;;;;;5017340;28;20213;-81
2021/08/21 01:39:33;;;;;;;3.00;2.70;;;20.40;61.60;;;;;;5017726;28;20152;-81
2021/08/21 01:41:59;;;;;;;2.92;2.65;;;20.40;61.70;;;;;;5052646;28;20659;-81
2021/08/21 01:44:28;;;;;;;3.10;2.80;;;20.40;61.70;;;;;;5018482;28;20163;-80
2021/08/21 01:46:54;;;;;;;3.20;2.90;;;20.40;61.70;;;;;;5069294;28;20183;-81
2021/08/21 01:49:22;;;;;;;3.20;2.90;;;20.30;61.60;;;;;;5017200;28;20615;-81
2021/08/21 01:51:49;;;;;;;3.30;2.90;;;20.30;61.60;;;;;;5017396;28;20152;-81
2021/08/21 01:54:16;;;;;;;3.10;2.67;;;20.30;61.60;;;;;;5001076;28;20199;-82
2021/08/21 01:56:51;;;;;;;3.65;3.05;;;20.40;61.70;;;;;;5018319;28;20237;-81
2021/08/21 01:59:26;;;;;;;3.15;2.85;;;20.40;61.70;;;;;;5000846;28;20191;-81
2021/08/21 02:01:52;;;;;;;2.90;2.60;;;20.30;61.60;;;;;;4983919;28;20186;-80
2021/08/21 02:04:18;;;;;;;3.08;2.67;;;20.40;61.70;;;;;;5017359;28;20641;-81
2021/08/21 02:06:44;;;;;;;2.90;2.60;;;20.30;61.70;;;;;;5016801;28;20175;-81
2021/08/21 02:09:12;;;;;;;3.60;2.80;;;20.30;61.60;;;;;;5017622;28;20170;-81
2021/08/21 02:11:38;;;;;;;3.08;2.78;;;20.30;61.70;;;;;;5017018;28;20247;-81
2021/08/21 02:14:03;;;;;;;2.88;2.53;;;20.30;61.70;;;;;;5021163;28;20159;-81
2021/08/21 02:16:34;;;;;;;2.95;2.53;;;20.30;61.70;;;;;;5023858;28;20685;-81
2021/08/21 02:19:04;;;;;;;2.97;2.67;;;20.30;61.70;;;;;;5074952;28;20182;-82
2021/08/21 02:21:30;;;;;;;3.00;2.70;;;20.30;61.70;;;;;;5074882;28;20182;-81
2021/08/21 02:24:00;;;;;;;3.13;2.83;;;20.30;61.70;;;;;;5040153;28;20170;-81
2021/08/21 02:26:26;;;;;;;2.92;2.63;;;20.30;61.70;;;;;;5074609;28;20178;-81
2021/08/21 02:28:53;;;;;;;3.17;2.88;;;20.30;61.60;;;;;;5058000;28;20245;-82
2021/08/21 02:31:19;;;;;;;3.33;2.80;;;20.30;61.60;;;;;;5023722;28;20173;-81
2021/08/21 02:33:45;;;;;;;2.97;2.67;;;20.30;61.80;;;;;;5040204;28;20644;-81
2021/08/21 02:36:12;;;;;;;2.90;2.60;;;20.30;61.70;;;;;;5039494;28;20672;-81
2021/08/21 02:38:39;;;;;;;2.95;2.65;;;20.30;61.70;;;;;;5023668;28;20517;-82
2021/08/21 02:41:06;;;;;;;3.13;2.83;;;20.30;61.70;;;;;;5039447;28;20166;-82
2021/08/21 02:43:32;;;;;;;2.55;2.35;;;20.30;61.70;;;;;;5039632;28;20348;-82
2021/08/21 02:45:58;;;;;;;2.78;2.47;;;20.20;61.60;;;;;;5057813;28;20250;-81
2021/08/21 02:48:24;;;;;;;3.03;2.72;;;20.20;61.70;;;;;;5022799;28;20170;-82
2021/08/21 02:50:50;;;;;;;3.10;2.78;;;20.30;61.80;;;;;;5040048;28;20177;-82
2021/08/21 02:53:19;;;;;;;3.42;3.10;;;20.30;61.80;;;;;;5039928;28;20185;-81
2021/08/21 02:55:45;;;;;;;2.90;2.70;;;20.30;61.80;;;;;;5090770;28;20265;-81
2021/08/21 02:58:11;;;;;;;3.10;2.80;;;20.30;61.70;;;;;;5057716;28;20210;-81
2021/08/21 03:00:38;;;;;;;2.58;2.38;;;20.20;61.70;;;;;;5038937;28;20214;-81
2021/08/21 03:03:08;;;;;;;3.20;2.88;;;20.30;61.70;;;;;;5039397;28;20150;-81
2021/08/21 03:05:39;;;;;;;3.22;2.70;;;20.30;61.80;;;;;;5108033;28;20641;-80
2021/08/21 03:08:05;;;;;;;2.80;2.50;;;20.30;61.80;;;;;;5090262;28;20194;-82
2021/08/21 03:10:31;;;;;;;2.90;2.45;;;20.30;61.80;;;;;;5057397;28;20162;-81
2021/08/21 03:12:57;;;;;;;2.95;2.70;;;20.30;61.80;;;;;;5039401;28;20193;-81
2021/08/21 03:15:24;;;;;;;2.83;2.60;;;20.30;62.00;;;;;;5022432;28;20704;-81
2021/08/21 03:17:51;;;;;;;3.65;2.90;;;20.30;61.80;;;;;;5038944;28;20163;-81
2021/08/21 03:20:17;;;;;;;3.53;3.00;;;20.30;61.80;;;;;;5038659;28;20146;-81
2021/08/21 03:22:47;;;;;;;2.92;2.60;;;20.30;61.80;;;;;;5056559;28;20151;-81
2021/08/21 03:25:13;;;;;;;3.10;2.80;;;20.20;61.90;;;;;;5090444;28;20213;-82
2021/08/21 03:27:39;;;;;;;3.03;2.72;;;20.30;61.80;;;;;;5038416;28;20178;-81
2021/08/21 03:30:09;;;;;;;2.97;2.67;;;20.30;62.00;;;;;;5057620;28;20646;-81
2021/08/21 03:32:35;;;;;;;3.03;2.70;;;20.20;61.80;;;;;;5073578;28;20193;-81
2021/08/21 03:35:06;;;;;;;3.30;3.00;;;20.20;61.80;;;;;;5038804;28;20565;-81
2021/08/21 03:37:32;;;;;;;3.13;2.83;;;20.30;61.80;;;;;;5020894;28;20204;-81
2021/08/21 03:39:58;;;;;;;3.20;2.90;;;20.30;61.90;;;;;;5039218;28;20153;-81
2021/08/21 03:42:24;;;;;;;3.35;2.80;;;20.30;61.80;;;;;;5037206;28;20170;-81
2021/08/21 03:44:55;;;;;;;3.47;2.80;;;20.20;61.80;;;;;;5021019;28;20208;-81
2021/08/21 03:47:21;;;;;;;3.00;2.70;;;20.30;61.80;;;;;;5089961;28;20192;-81
2021/08/21 03:49:51;;;;;;;3.00;2.67;;;20.30;62.00;;;;;;5037652;28;20587;-81
2021/08/21 03:52:17;;;;;;;3.30;2.70;;;20.30;62.00;;;;;;5089384;28;20265;-82
2021/08/21 03:54:48;;;;;;;2.63;2.42;;;20.20;61.90;;;;;;5056477;28;20677;-81
2021/08/21 03:57:17;;;;;;;2.63;2.40;;;20.20;61.90;;;;;;5021282;28;20182;-81
2021/08/21 03:59:43;;;;;;;3.10;2.67;;;20.20;61.90;;;;;;5073657;28;20632;-81
2021/08/21 04:02:09;;;;;;;2.90;2.70;;;20.30;61.90;;;;;;5038445;28;20237;-81
2021/08/21 04:04:39;;;;;;;3.20;2.90;;;20.20;61.90;;;;;;5039003;28;20162;-80
2021/08/21 04:07:05;;;;;;;2.90;2.60;;;20.20;62.00;;;;;;5108065;28;20188;-82
2021/08/21 04:09:36;;;;;;;3.10;2.80;;;20.20;61.80;;;;;;5040795;28;20170;-81
2021/08/21 04:12:06;;;;;;;2.63;2.40;;;20.20;61.60;;;;;;5024223;28;20186;-80
2021/08/21 04:14:31;;;;;;;2.53;2.33;;;20.30;61.60;;;;;;5022803;28;20249;-81
2021/08/21 04:16:59;;;;;;;2.70;2.50;;;20.30;61.70;;;;;;5059003;28;20212;-81
2021/08/21 04:19:25;;;;;;;3.13;2.83;;;20.30;61.60;;;;;;5043481;28;20580;-80
2021/08/21 04:21:51;;;;;;;2.75;2.50;;;20.30;61.60;;;;;;5062770;28;20158;-80
2021/08/21 04:24:21;;;;;;;2.67;2.47;;;20.20;61.60;;;;;;5028770;28;20666;-81
2021/08/21 04:26:47;;;;;;;2.60;2.40;;;20.30;61.50;;;;;;5081028;28;20186;-80
2021/08/21 04:29:16;;;;;;;2.97;2.67;;;20.30;61.50;;;;;;5046373;28;20252;-80
2021/08/21 04:31:42;;;;;;;2.85;2.55;;;20.30;61.40;;;;;;5115735;28;20185;-80
2021/08/21 04:34:12;;;;;;;3.17;2.88;;;20.30;61.60;;;;;;5030176;28;20193;-81
2021/08/21 04:36:42;;;;;;;3.30;2.80;;;20.30;61.60;;;;;;5097631;28;20218;-80
2021/08/21 04:39:08;;;;;;;2.80;2.55;;;20.30;61.70;;;;;;5028562;28;20269;-80
2021/08/21 04:41:34;;;;;;;3.00;2.70;;;20.30;61.70;;;;;;5029037;28;20162;-81
2021/08/21 04:44:00;;;;;;;2.90;2.60;;;20.30;61.60;;;;;;5063604;28;20147;-80
2021/08/21 04:46:35;;;;;;;3.45;2.80;;;20.30;61.50;;;;;;5045424;28;20158;-80
2021/08/21 04:49:05;;;;;;;2.70;2.50;;;20.30;61.40;;;;;;5097885;28;20189;-80
2021/08/21 04:51:37;;;;;;;2.90;2.60;;;20.30;61.40;;;;;;5098011;28;20189;-81
2021/08/21 04:54:03;;;;;;;2.75;2.47;;;20.30;61.40;;;;;;5080179;28;20182;-81
2021/08/21 04:56:33;;;;;;;2.65;2.45;;;20.40;61.60;;;;;;5044842;28;20243;-80
2021/08/21 04:59:04;;;;;;;2.70;2.47;;;20.40;61.70;;;;;;5097579;28;20197;-81
2021/08/21 05:01:34;;;;;;;2.90;2.60;;;20.30;61.40;;;;;;5097754;28;20269;-81
2021/08/21 05:04:00;;;;;;;2.83;2.53;;;20.30;61.40;;;;;;5080777;28;20640;-81
2021/08/21 05:06:26;;;;;;;3.13;2.63;;;20.30;61.30;;;;;;5045779;28;20159;-80
2021/08/21 05:08:56;;;;;;;2.47;2.28;;;20.30;61.30;;;;;;5045618;28;20166;-81
2021/08/21 05:11:26;;;;;;;3.45;2.67;;;20.40;61.30;;;;;;5081132;28;20272;-80
2021/08/21 05:13:55;;;;;;;2.85;2.50;;;20.40;61.20;;;;;;5097064;28;20190;-80
2021/08/21 05:16:22;;;;;;;2.70;2.40;;;20.40;61.20;;;;;;5107832;28;20314;-81
2021/08/21 05:18:51;;;;;;;2.72;2.42;;;20.40;61.80;;;;;;5022419;28;20166;-80
2021/08/21 05:21:29;;;;;;;2.65;2.40;;;20.50;60.90;;;;;;5022137;28;20177;-81
2021/08/21 05:23:56;;;;;;;2.90;2.60;;;20.50;60.80;;;;;;5023833;28;20168;-81
2021/08/21 05:26:22;;;;;;;3.00;2.70;;;20.50;60.80;;;;;;5005468;28;20192;-80
2021/08/21 05:28:54;;;;;;;2.72;2.40;;;20.50;60.70;;;;;;5005229;28;20622;-80
2021/08/21 05:31:26;;;;;;;2.70;2.42;;;20.50;60.70;;;;;;5072860;28;20179;-80
2021/08/21 05:33:56;;;;;;;3.83;2.42;;;20.50;60.60;;;;;;5108007;28;20282;-80
2021/08/21 05:36:21;;;;;;;2.85;2.55;;;20.60;60.50;;;;;;5090862;28;20231;-80
2021/08/21 05:38:47;;;;;;;2.50;2.30;;;20.70;60.30;;;;;;5021651;28;20187;-80
2021/08/21 05:41:17;;;;;;;2.60;2.35;;;20.70;60.30;;;;;;5021919;28;20633;-80
2021/08/21 05:43:47;;;;;;;2.40;2.20;;;20.70;60.00;;;;;;5108073;28;20580;-80
2021/08/21 05:46:13;;;;;;;2.50;2.30;;;20.70;59.90;;;;;;5090866;28;20673;-80
2021/08/21 05:48:39;;;;;;;2.47;2.28;;;20.70;59.80;;;;;;5003475;28;20528;-81
2021/08/21 05:51:09;;;;;;;2.50;2.30;;;20.70;59.90;;;;;;5018520;28;20166;-80
2021/08/21 05:53:34;;;;;;;2.42;2.22;;;20.70;59.90;;;;;;5085650;28;20195;-81
2021/08/21 05:56:05;;;;;;;2.53;2.33;;;20.70;59.90;;;;;;5017603;28;20282;-80
2021/08/21 05:58:35;;;;;;;3.53;2.20;;;20.80;59.90;;;;;;5069549;28;20183;-81
2021/08/21 06:01:01;;;;;;;2.65;2.45;;;20.80;59.60;;;;;;5105267;28;20191;-81
2021/08/21 06:03:27;;;;;;;2.72;2.47;;;20.90;59.50;;;;;;5002000;28;20607;-80
2021/08/21 06:05:57;;;;;;;2.58;2.30;;;20.90;59.60;;;;;;5018314;28;20183;-79
2021/08/21 06:08:22;;;;;;;2.53;2.30;;;20.80;59.60;;;;;;5103032;28;20269;-82
2021/08/21 06:10:51;;;;;;;2.30;2.10;;;20.90;59.70;;;;;;5019817;28;20163;-81
2021/08/21 06:13:23;;;;;;;2.50;2.30;;;20.90;59.60;;;;;;5020160;28;20155;-81
2021/08/21 06:15:49;;;;;;;2.95;2.60;;;20.90;59.40;;;;;;5090105;28;20233;-81
2021/08/21 06:18:24;;;;;;;2.70;2.50;;;20.90;59.30;;;;;;5039564;28;20151;-80
2021/08/21 06:20:55;;;;;;;2.58;2.38;;;20.90;59.50;;;;;;5109536;28;20186;-80
2021/08/21 06:23:21;;;;;;;2.60;2.30;;;20.90;59.50;;;;;;5075716;28;20187;-81
2021/08/21 06:25:47;;;;;;;2.50;2.30;;;20.90;59.50;;;;;;5039045;28;20614;-80
2021/08/21 06:28:19;;;;;;;2.30;2.10;;;20.90;59.40;;;;;;5039241;28;20155;-80
2021/08/21 06:30:45;;;;;;;2.28;2.08;;;21.00;59.20;;;;;;5108511;28;20186;-81
2021/08/21 06:33:19;;;;;;;2.47;2.15;;;21.00;59.20;;;;;;5039235;28;20192;-80
2021/08/21 06:35:45;;;;;;;2.80;2.40;;;21.00;59.30;;;;;;5073388;28;20692;-82
2021/08/21 06:38:11;;;;;;;2.60;2.40;;;21.00;59.30;;;;;;5021550;28;20235;-80
2021/08/21 06:40:44;;;;;;;4.07;2.65;;;21.00;59.20;;;;;;5037847;28;20155;-80
2021/08/21 06:43:15;;;;;;;2.33;2.13;;;21.00;59.20;;;;;;5004333;28;20227;-80
2021/08/21 06:45:41;;;;;;;2.30;2.10;;;21.10;59.00;;;;;;5107664;28;20202;-81
2021/08/21 06:48:07;;;;;;;2.65;2.45;;;21.00;58.90;;;;;;5038833;28;20167;-81
2021/08/21 06:50:34;;;;;;;2.58;2.38;;;21.10;58.90;;;;;;5038354;28;20163;-81
2021/08/21 06:53:04;;;;;;;2.45;2.10;;;21.20;58.70;;;;;;5039177;28;20180;-81
2021/08/21 06:55:34;;;;;;;3.05;2.20;;;21.20;58.70;;;;;;5089536;28;20217;-80
2021/08/21 06:58:04;;;;;;;2.20;2.00;;;21.20;58.50;;;;;;5090324;28;20206;-80
2021/08/21 07:00:30;;;;;;;2.38;2.17;;;21.30;58.50;;;;;;5072872;28;20201;-81
2021/08/21 07:02:56;;;;;;;2.30;2.10;;;21.20;58.40;;;;;;5021145;28;20162;-80
2021/08/21 07:05:28;;;;;;;2.75;2.35;;;21.20;58.50;;;;;;5040067;28;20166;-80
2021/08/21 07:07:54;;;;;;;2.42;2.22;;;21.30;58.50;;;;;;5090623;28;20193;-80
2021/08/21 07:10:20;;;;;;;2.30;2.10;;;21.20;58.50;;;;;;5037279;28;20529;-80
2021/08/21 07:12:46;;;;;;;2.80;2.40;;;21.20;58.60;;;;;;5037289;28;20630;-81
2021/08/21 07:15:12;;;;;;;2.50;2.30;;;21.20;59.20;;;;;;5036297;28;20344;-81
2021/08/21 07:17:39;;;;;;;2.53;2.33;;;21.20;58.50;;;;;;5036884;28;20220;-81
2021/08/21 07:20:05;;;;;;;2.80;2.50;;;21.20;58.50;;;;;;5020547;28;20159;-80
2021/08/21 07:22:35;;;;;;;2.47;2.28;;;21.20;58.60;;;;;;5038643;28;20167;-81
2021/08/21 07:25:05;;;;;;;2.30;1.85;;;21.20;58.50;;;;;;5106163;28;20183;-81
2021/08/21 07:27:36;;;;;;;2.40;2.20;;;21.20;58.50;;;;;;5105251;28;20227;-80
2021/08/21 07:30:07;;;;;;;2.92;2.60;;;21.20;58.60;;;;;;5088617;28;20642;-80
2021/08/21 07:32:34;;;;;;;2.58;2.30;;;21.30;58.50;;;;;;5088514;28;20277;-79
2021/08/21 07:35:04;;;;;;;2.35;2.15;;;21.30;58.60;;;;;;5038159;28;20179;-81
2021/08/21 07:37:31;;;;;;;2.42;2.20;;;21.30;58.60;;;;;;5071871;28;20182;-80
2021/08/21 07:40:01;;;;;;;2.22;2.03;;;21.30;58.50;;;;;;5037377;28;20646;-79
2021/08/21 07:42:26;;;;;;;2.55;2.35;;;21.30;58.50;;;;;;5088409;28;20191;-80
2021/08/21 07:44:57;;;;;;;2.40;2.20;;;21.30;58.40;;;;;;5020279;28;20243;-80
2021/08/21 07:47:27;;;;;;;2.38;2.13;;;21.30;58.50;;;;;;5071179;28;20281;-80
2021/08/21 07:49:53;;;;;;;2.42;2.08;;;21.30;58.50;;;;;;5088212;28;20191;-80
2021/08/21 07:52:19;;;;;;;2.53;2.30;;;21.30;58.60;;;;;;5037738;28;20608;-80
2021/08/21 07:54:45;;;;;;;2.10;1.90;;;21.30;58.60;;;;;;5035939;28;20602;-80
2021/08/21 07:57:15;;;;;;;2.20;2.00;;;21.30;58.60;;;;;;5036519;28;20636;-81
2021/08/21 07:59:41;;;;;;;2.75;2.03;;;21.30;58.40;;;;;;5104979;28;20541;-82
2021/08/21 08:02:09;;;;;;;2.67;2.47;;;21.30;58.60;;;;;;5036271;28;20159;-81
2021/08/21 08:04:41;;;;;;;2.30;2.10;;;21.30;58.60;;;;;;5036086;28;20158;-81
2021/08/21 08:07:10;;;;;;;2.28;2.08;;;21.30;58.30;;;;;;5088134;28;20224;-80
2021/08/21 08:09:36;;;;;;;2.55;2.00;;;21.30;58.30;;;;;;5087619;28;20182;-80
2021/08/21 08:12:06;;;;;;;2.40;2.20;;;21.30;58.30;;;;;;5036811;28;20516;-79
2021/08/21 08:14:32;;;;;;;2.30;2.10;;;21.40;58.30;;;;;;5105452;28;20229;-80
2021/08/21 08:16:58;;;;;;;2.20;2.00;;;21.30;58.40;;;;;;5019203;28;20183;-80
2021/08/21 08:19:24;;;;;;;2.33;2.13;;;21.30;58.50;;;;;;5034808;28;20155;-79
2021/08/21 08:21:50;;;;;;;2.28;2.08;;;21.30;58.60;;;;;;5036675;28;20171;-82
2021/08/21 08:24:19;;;;;;;2.15;1.95;;;21.30;58.50;;;;;;5018388;28;20170;-81
2021/08/21 08:26:54;;;;;;;2.63;2.40;;;21.30;58.50;;;;;;5019465;28;20181;-81
2021/08/21 08:29:19;;;;;;;2.63;2.13;;;21.30;58.40;;;;;;5017691;28;20189;-80
2021/08/21 08:31:45;;;;;;;2.35;2.15;;;21.30;58.50;;;;;;5035311;28;20163;-81
2021/08/21 08:34:11;;;;;;;2.90;2.10;;;21.40;58.40;;;;;;5035610;28;20167;-81
2021/08/21 08:36:37;;;;;;;2.47;2.28;;;21.30;58.50;;;;;;5036126;28;20240;-80
2021/08/21 08:39:03;;;;;;;2.20;2.00;;;21.30;58.50;;;;;;5036303;28;20200;-81
2021/08/21 08:41:29;;;;;;;2.45;2.17;;;21.30;58.50;;;;;;5036785;28;20155;-81
2021/08/21 08:43:55;;;;;;;2.03;1.83;;;21.30;58.70;;;;;;5037361;28;20156;-80
2021/08/21 08:46:21;;;;;;;2.50;2.20;;;21.30;58.50;;;;;;5037595;28;20173;-80
2021/08/21 08:48:47;;;;;;;2.28;2.08;;;21.30;58.60;;;;;;5036497;28;20633;-80
2021/08/21 08:51:14;;;;;;;2.28;2.08;;;21.30;58.50;;;;;;5037808;28;20622;-80
2021/08/21 08:53:40;;;;;;;2.42;2.00;;;21.30;58.70;;;;;;5037405;28;20163;-81
2021/08/21 08:56:06;;;;;;;2.28;1.90;;;21.20;58.50;;;;;;5038579;28;20626;-81
2021/08/21 08:58:36;;;;;;;3.17;2.17;;;21.30;58.60;;;;;;5037476;28;20166;-80
2021/08/21 09:01:06;;;;;;;2.50;2.30;;;21.30;58.60;;;;;;5070614;28;20205;-80
2021/08/21 09:03:33;;;;;;;2.38;2.17;;;21.30;58.70;;;;;;5104660;28;20194;-82
2021/08/21 09:05:59;;;;;;;2.20;2.00;;;21.30;58.70;;;;;;5021778;28;20162;-81
2021/08/21 09:08:26;;;;;;;2.45;2.17;;;21.30;58.90;;;;;;5023088;28;20226;-81
2021/08/21 09:10:54;;;;;;;2.10;1.90;;;21.30;58.80;;;;;;5023371;28;20167;-80
2021/08/21 09:13:20;;;;;;;1.92;1.73;;;21.30;58.70;;;;;;5023246;28;20193;-81
2021/08/21 09:15:49;;;;;;;2.25;1.90;;;21.30;58.60;;;;;;5040170;28;20314;-80
2021/08/21 09:18:21;;;;;;;3.10;1.92;;;21.40;58.50;;;;;;5039536;28;20152;-80
2021/08/21 09:20:55;;;;;;;3.58;2.22;;;21.40;58.60;;;;;;5107865;28;20182;-80
2021/08/21 09:23:26;;;;;;;2.30;2.10;;;21.30;58.50;;;;;;5090721;28;20190;-81
2021/08/21 09:26:05;;;;;;;2.72;2.13;;;21.40;58.60;;;;;;5023099;28;20167;-80
2021/08/21 09:28:32;;;;;;;2.10;1.90;;;21.30;58.70;;;;;;5071534;28;20214;-80
2021/08/21 09:31:07;;;;;;;2.33;2.00;;;21.30;58.80;;;;;;5039876;28;20151;-79
2021/08/21 09:33:38;;;;;;;2.33;2.08;;;21.30;58.50;;;;;;5022789;28;20281;-80
2021/08/21 09:36:04;;;;;;;1.95;1.83;;;21.30;58.60;;;;;;5092128;28;20690;-82
2021/08/21 09:38:31;;;;;;;2.10;1.90;;;21.30;58.70;;;;;;5024117;28;20183;-80
2021/08/21 09:41:04;;;;;;;3.67;2.00;;;21.30;58.40;;;;;;5024514;28;20174;-80
2021/08/21 09:43:33;;;;;;;2.67;2.00;;;21.40;58.50;;;;;;5075082;28;20178;-81
2021/08/21 09:46:12;;;;;;;2.40;1.75;;;21.40;58.40;;;;;;5039844;28;20151;-80
2021/08/21 09:49:06;;;;;;;2.63;2.05;;;21.30;58.40;;;;;;5040462;28;20155;-81
2021/08/21 09:51:45;;;;;;;2.60;1.90;;;21.40;58.40;;;;;;5041544;28;20175;-81
2021/08/21 09:54:20;;;;;;;2.15;1.95;;;21.40;58.40;;;;;;5041875;28;20182;-80
2021/08/21 09:56:55;;;;;;;3.00;2.10;;;21.40;58.30;;;;;;5007186;28;20301;-80
2021/08/21 09:59:46;;;;;;;2.10;1.90;;;21.40;58.40;;;;;;5109829;28;20175;-80
2021/08/21 10:02:13;;;;;;;2.53;1.83;;;21.40;59.10;;;;;;5040908;28;20640;-80
2021/08/21 10:04:43;;;;;;;2.50;2.10;;;21.30;58.40;;;;;;5022758;28;20641;-80
2021/08/21 10:07:19;;;;;;;2.05;1.85;;;21.40;58.60;;;;;;5091530;28;20194;-80
2021/08/21 10:09:52;;;;;;;2.08;1.88;;;21.30;58.40;;;;;;5073424;28;20190;-79
2021/08/21 10:12:22;;;;;;;2.10;1.83;;;21.40;58.40;;;;;;5090454;28;20601;-80
2021/08/21 10:14:49;;;;;;;2.35;2.00;;;21.40;58.40;;;;;;5074629;28;20267;-79
2021/08/21 10:17:16;;;;;;;2.30;2.10;;;21.40;58.40;;;;;;5023424;28;20567;-82
2021/08/21 10:19:42;;;;;;;2.30;2.10;;;21.40;58.30;;;;;;5041477;28;20158;-80
2021/08/21 10:22:13;;;;;;;3.35;2.10;;;21.40;58.30;;;;;;5040646;28;20171;-79
2021/08/21 10:24:40;;;;;;;2.10;1.90;;;21.40;58.40;;;;;;5076209;28;20182;-80
2021/08/21 10:27:26;;;;;;;2.40;2.00;;;21.40;58.30;;;;;;5040991;28;20167;-80
2021/08/21 10:30:17;;;;;;;3.65;2.20;;;21.40;58.40;;;;;;5089277;28;20236;-81
2021/08/21 10:33:03;;;;;;;2.35;2.00;;;21.40;58.60;;;;;;5040914;28;20236;-80
2021/08/21 10:35:49;;;;;;;2.25;2.05;;;21.40;58.60;;;;;;5085953;28;20210;-80
2021/08/21 10:38:36;;;;;;;2.22;2.03;;;21.30;58.70;;;;;;5040209;28;20189;-80
2021/08/21 10:41:33;;;;;;;1.85;1.75;;;21.40;58.70;;;;;;5040428;28;20159;-80
2021/08/21 10:44:03;;;;;;;2.22;2.03;;;21.30;58.70;;;;;;5037826;28;20170;-81
2021/08/21 10:46:50;;;;;;;2.20;2.00;;;21.30;58.80;;;;;;5106974;28;20202;-79
2021/08/21 10:49:38;;;;;;;2.25;2.00;;;21.30;59.10;;;;;;5024307;28;20163;-80
2021/08/21 10:52:08;;;;;;;2.47;1.98;;;21.20;59.20;;;;;;5038114;28;20155;-80
2021/08/21 10:54:46;;;;;;;2.22;2.00;;;21.20;59.30;;;;;;5105419;28;20232;-79
2021/08/21 10:57:33;;;;;;;1.90;1.80;;;21.20;59.30;;;;;;5107026;28;20218;-81
2021/08/21 11:00:00;;;;;;;2.17;1.98;;;21.20;59.50;;;;;;5089112;28;20190;-81
2021/08/21 11:02:44;;;;;;;2.33;2.00;;;21.20;59.30;;;;;;5105877;28;20612;-80
2021/08/21 11:05:44;;;;;;;2.20;2.00;;;21.20;59.30;;;;;;5021069;28;20216;-79
2021/08/21 11:08:15;;;;;;;2.03;1.85;;;21.20;59.30;;;;;;5037127;28;20174;-79
2021/08/21 11:10:41;;;;;;;2.28;2.08;;;21.30;59.20;;;;;;5089668;28;20251;-81
2021/08/21 11:13:24;;;;;;;2.60;2.20;;;21.20;59.30;;;;;;5021177;28;20207;-80
2021/08/21 11:16:00;;;;;;;2.15;1.95;;;21.20;59.20;;;;;;5021401;28;20277;-80
2021/08/21 11:18:27;;;;;;;2.00;1.80;;;21.30;59.20;;;;;;5104964;28;20190;-80
2021/08/21 11:20:57;;;;;;;2.30;2.00;;;21.20;59.20;;;;;;5037229;28;20183;-81
2021/08/21 11:23:28;;;;;;;2.05;1.85;;;21.20;59.10;;;;;;5088485;28;20182;-80
2021/08/21 11:25:54;;;;;;;2.33;2.00;;;21.30;59.90;;;;;;5105616;28;20209;-81
2021/08/21 11:28:34;;;;;;;2.28;2.00;;;21.20;59.20;;;;;;5019286;28;20171;-81
2021/08/21 11:31:13;;;;;;;2.08;1.88;;;21.20;59.30;;;;;;5071505;28;20182;-81
2021/08/21 11:33:40;;;;;;;2.30;2.10;;;21.30;59.30;;;;;;5088213;28;20174;-81
2021/08/21 11:36:12;;;;;;;2.22;2.03;;;21.20;59.20;;;;;;5019784;28;20271;-80
2021/08/21 11:38:43;;;;;;;2.70;2.10;;;21.30;59.40;;;;;;5069897;28;20179;-81
2021/08/21 11:41:13;;;;;;;3.28;2.30;;;21.20;59.60;;;;;;5070911;28;20179;-81
2021/08/21 11:43:43;;;;;;;2.00;1.80;;;21.10;59.50;;;;;;5019394;28;20167;-80
2021/08/21 11:46:10;;;;;;;2.13;1.98;;;21.10;59.60;;;;;;5088159;28;20266;-79
2021/08/21 11:48:41;;;;;;;1.77;1.65;;;21.20;59.60;;;;;;5018929;28;20170;-80
2021/08/21 11:51:08;;;;;;;2.20;2.00;;;21.10;59.60;;;;;;5104520;28;20649;-80
2021/08/21 11:53:39;;;;;;;2.50;2.05;;;21.10;59.50;;;;;;5036147;28;20621;-81
2021/08/21 11:56:10;;;;;;;3.25;2.00;;;21.10;59.60;;;;;;5035767;28;20190;-80
2021/08/21 11:58:43;;;;;;;2.47;1.90;;;21.10;59.90;;;;;;5086078;28;20179;-81
2021/08/21 12:01:11;;;;;;;2.80;2.10;;;21.10;59.90;;;;;;5019598;28;20163;-80
2021/08/21 12:06:32;;;;;;;2.90;2.00;;;21.10;59.90;;;;;;5021758;28;20193;-81
2021/08/21 12:09:15;;;;;;;2.70;2.20;;;21.10;59.80;;;;;;5034554;28;20151;-80
2021/08/21 12:11:43;;;;;;;2.13;1.95;;;21.10;59.60;;;;;;5019704;28;20552;-81
2021/08/21 12:14:08;;;;;;;2.08;1.88;;;21.10;59.90;;;;;;5037742;28;20158;-80
2021/08/21 12:16:34;;;;;;;2.20;2.00;;;21.10;59.90;;;;;;5038757;28;20194;-82
2021/08/21 12:19:00;;;;;;;2.35;2.15;;;21.10;59.70;;;;;;5038203;28;20158;-80
2021/08/21 12:21:31;;;;;;;1.90;1.70;;;21.10;60.00;;;;;;5038804;28;20558;-80
2021/08/21 12:24:05;;;;;;;1.83;1.73;;;21.10;60.00;;;;;;5089960;28;20201;-81
2021/08/21 12:26:34;;;;;;;2.20;1.90;;;21.10;60.10;;;;;;5088603;28;20671;-79
2021/08/21 12:29:05;;;;;;;2.20;2.00;;;21.00;60.10;;;;;;5056274;28;20161;-80
2021/08/21 12:31:39;;;;;;;2.50;1.90;;;21.00;60.00;;;;;;5021545;28;20185;-80
2021/08/21 12:34:07;;;;;;;1.90;1.70;;;21.10;60.10;;;;;;5038781;28;20616;-80
2021/08/21 12:36:44;;;;;;;2.15;1.90;;;21.00;60.20;;;;;;5021776;28;20190;-81
2021/08/21 12:39:22;;;;;;;2.42;2.10;;;21.00;60.20;;;;;;5091067;28;20178;-80
2021/08/21 12:42:02;;;;;;;2.28;2.08;;;21.00;60.20;;;;;;5091100;28;20184;-81
2021/08/21 12:44:36;;;;;;;2.20;2.00;;;21.10;60.20;;;;;;5059545;28;20187;-80
2021/08/21 12:47:05;;;;;;;2.50;2.20;;;21.00;60.10;;;;;;5093838;28;20201;-80
2021/08/21 12:49:40;;;;;;;2.33;1.95;;;21.00;60.00;;;;;;5025157;28;20158;-79
2021/08/21 12:52:22;;;;;;;2.92;1.98;;;21.10;60.10;;;;;;5041581;28;20617;-81
2021/08/21 12:55:05;;;;;;;2.22;2.00;;;21.00;60.20;;;;;;5107533;28;20214;-80
2021/08/21 12:57:38;;;;;;;2.42;1.88;;;21.00;60.10;;;;;;5041447;28;20154;-80
2021/08/21 13:00:20;;;;;;;2.35;2.15;;;21.10;60.20;;;;;;5075577;28;20200;-81
2021/08/21 13:02:53;;;;;;;2.78;1.83;;;21.10;60.30;;;;;;5041943;28;20236;-80